sensor_id;sensor_type;location;lat;lon;timestamp;P1;durP1;ratioP1;P2;durP2;ratioP2
17197;SDS011;8715;51.010;6.812;2023-12-07T00:00:28;766.67;;;727.33;;
17197;SDS011;8715;51.010;6.812;2023-12-07T00:03:13;770.63;;;731.60;;
17197;SDS011;8715;51.010;6.812;2023-12-07T00:05:58;768.80;;;729.55;;
17197;SDS011;8715;51.010;6.812;2023-12-07T00:08:43;764.97;;;725.65;;
17197;SDS011;8715;51.010;6.812;2023-12-07T00:11:28;772.00;;;732.35;;
17197;SDS011;8715;51.010;6.812;2023-12-07T00:14:14;764.55;;;725.75;;
17197;SDS011;8715;51.010;6.812;2023-12-07T00:17:00;767.72;;;728.85;;
17197;SDS011;8715;51.010;6.812;2023-12-07T00:19:46;769.15;;;730.30;;
17197;SDS011;8715;51.010;6.812;2023-12-07T00:22:31;765.35;;;726.17;;
17197;SDS011;8715;51.010;6.812;2023-12-07T00:25:16;765.50;;;727.30;;
17197;SDS011;8715;51.010;6.812;2023-12-07T00:28:01;794.00;;;752.63;;
17197;SDS011;8715;51.010;6.812;2023-12-07T00:30:47;776.65;;;737.40;;
17197;SDS011;8715;51.010;6.812;2023-12-07T00:33:33;766.22;;;727.50;;
17197;SDS011;8715;51.010;6.812;2023-12-07T00:36:18;762.50;;;724.20;;
17197;SDS011;8715;51.010;6.812;2023-12-07T00:39:03;783.50;;;743.60;;
17197;SDS011;8715;51.010;6.812;2023-12-07T00:41:48;766.35;;;727.25;;
17197;SDS011;8715;51.010;6.812;2023-12-07T00:44:33;757.72;;;720.40;;
17197;SDS011;8715;51.010;6.812;2023-12-07T00:47:18;760.53;;;722.30;;
17197;SDS011;8715;51.010;6.812;2023-12-07T00:50:06;750.95;;;714.10;;
17197;SDS011;8715;51.010;6.812;2023-12-07T00:52:51;759.15;;;721.33;;
17197;SDS011;8715;51.010;6.812;2023-12-07T00:55:36;761.88;;;724.42;;
17197;SDS011;8715;51.010;6.812;2023-12-07T00:58:21;759.15;;;721.42;;
17197;SDS011;8715;51.010;6.812;2023-12-07T01:01:06;752.97;;;716.40;;
17197;SDS011;8715;51.010;6.812;2023-12-07T01:03:52;771.90;;;733.88;;
17197;SDS011;8715;51.010;6.812;2023-12-07T01:06:38;745.53;;;709.00;;
17197;SDS011;8715;51.010;6.812;2023-12-07T01:09:23;746.58;;;709.88;;
17197;SDS011;8715;51.010;6.812;2023-12-07T01:12:08;773.53;;;735.28;;
17197;SDS011;8715;51.010;6.812;2023-12-07T01:14:53;742.13;;;706.53;;
17197;SDS011;8715;51.010;6.812;2023-12-07T01:17:38;751.17;;;715.10;;
17197;SDS011;8715;51.010;6.812;2023-12-07T01:20:23;742.15;;;706.10;;
17197;SDS011;8715;51.010;6.812;2023-12-07T01:23:10;742.20;;;706.63;;
17197;SDS011;8715;51.010;6.812;2023-12-07T01:25:54;733.83;;;698.92;;
17197;SDS011;8715;51.010;6.812;2023-12-07T01:28:40;734.97;;;700.00;;
17197;SDS011;8715;51.010;6.812;2023-12-07T01:31:25;743.92;;;708.55;;
17197;SDS011;8715;51.010;6.812;2023-12-07T01:34:10;737.30;;;701.95;;
17197;SDS011;8715;51.010;6.812;2023-12-07T01:36:55;729.97;;;694.83;;
17197;SDS011;8715;51.010;6.812;2023-12-07T01:39:42;724.67;;;690.58;;
17197;SDS011;8715;51.010;6.812;2023-12-07T01:42:28;728.00;;;693.30;;
17197;SDS011;8715;51.010;6.812;2023-12-07T01:45:13;722.55;;;688.88;;
17197;SDS011;8715;51.010;6.812;2023-12-07T01:47:58;716.75;;;683.22;;
17197;SDS011;8715;51.010;6.812;2023-12-07T01:50:43;727.80;;;693.60;;
17197;SDS011;8715;51.010;6.812;2023-12-07T01:53:28;727.17;;;693.05;;
17197;SDS011;8715;51.010;6.812;2023-12-07T01:56:15;729.85;;;695.22;;
17197;SDS011;8715;51.010;6.812;2023-12-07T01:59:00;729.53;;;695.67;;
17197;SDS011;8715;51.010;6.812;2023-12-07T02:01:46;720.95;;;687.20;;
17197;SDS011;8715;51.010;6.812;2023-12-07T02:04:31;721.75;;;688.80;;
17197;SDS011;8715;51.010;6.812;2023-12-07T02:07:18;770.78;;;719.65;;
17197;SDS011;8715;51.010;6.812;2023-12-07T02:10:04;723.42;;;689.42;;
17197;SDS011;8715;51.010;6.812;2023-12-07T02:12:51;728.92;;;694.63;;
17197;SDS011;8715;51.010;6.812;2023-12-07T02:15:37;710.47;;;677.30;;
17197;SDS011;8715;51.010;6.812;2023-12-07T02:18:24;739.83;;;705.28;;
17197;SDS011;8715;51.010;6.812;2023-12-07T02:21:11;726.72;;;692.20;;
17197;SDS011;8715;51.010;6.812;2023-12-07T02:23:58;726.03;;;692.30;;
17197;SDS011;8715;51.010;6.812;2023-12-07T02:26:45;725.33;;;675.53;;
17197;SDS011;8715;51.010;6.812;2023-12-07T02:29:30;716.55;;;683.40;;
17197;SDS011;8715;51.010;6.812;2023-12-07T02:32:15;721.97;;;688.33;;
17197;SDS011;8715;51.010;6.812;2023-12-07T02:35:00;715.42;;;681.38;;
17197;SDS011;8715;51.010;6.812;2023-12-07T02:37:46;720.60;;;687.60;;
17197;SDS011;8715;51.010;6.812;2023-12-07T02:40:31;723.75;;;689.67;;
17197;SDS011;8715;51.010;6.812;2023-12-07T02:43:18;712.95;;;679.13;;
17197;SDS011;8715;51.010;6.812;2023-12-07T02:46:03;727.92;;;693.20;;
17197;SDS011;8715;51.010;6.812;2023-12-07T02:48:48;719.65;;;685.92;;
17197;SDS011;8715;51.010;6.812;2023-12-07T02:51:33;719.75;;;685.90;;
17197;SDS011;8715;51.010;6.812;2023-12-07T02:54:18;729.42;;;694.75;;
17197;SDS011;8715;51.010;6.812;2023-12-07T02:57:03;722.17;;;687.42;;
17197;SDS011;8715;51.010;6.812;2023-12-07T02:59:49;729.10;;;694.85;;
17197;SDS011;8715;51.010;6.812;2023-12-07T03:02:34;738.50;;;688.50;;
17197;SDS011;8715;51.010;6.812;2023-12-07T03:05:19;720.70;;;683.85;;
17197;SDS011;8715;51.010;6.812;2023-12-07T03:08:06;718.33;;;684.08;;
17197;SDS011;8715;51.010;6.812;2023-12-07T03:10:51;723.30;;;688.88;;
17197;SDS011;8715;51.010;6.812;2023-12-07T03:13:37;725.85;;;690.72;;
17197;SDS011;8715;51.010;6.812;2023-12-07T03:16:23;720.35;;;686.05;;
17197;SDS011;8715;51.010;6.812;2023-12-07T03:19:08;728.35;;;693.10;;
17197;SDS011;8715;51.010;6.812;2023-12-07T03:21:53;723.28;;;689.25;;
17197;SDS011;8715;51.010;6.812;2023-12-07T03:24:39;723.72;;;689.47;;
17197;SDS011;8715;51.010;6.812;2023-12-07T03:27:25;752.05;;;715.40;;
17197;SDS011;8715;51.010;6.812;2023-12-07T03:30:11;727.42;;;692.47;;
17197;SDS011;8715;51.010;6.812;2023-12-07T03:32:58;722.47;;;688.15;;
17197;SDS011;8715;51.010;6.812;2023-12-07T03:35:43;715.88;;;681.63;;
17197;SDS011;8715;51.010;6.812;2023-12-07T03:38:28;717.85;;;684.25;;
17197;SDS011;8715;51.010;6.812;2023-12-07T03:41:13;736.58;;;701.45;;
17197;SDS011;8715;51.010;6.812;2023-12-07T03:43:58;726.65;;;691.90;;
17197;SDS011;8715;51.010;6.812;2023-12-07T03:46:43;738.10;;;702.38;;
17197;SDS011;8715;51.010;6.812;2023-12-07T03:49:29;730.97;;;695.53;;
17197;SDS011;8715;51.010;6.812;2023-12-07T03:52:14;740.35;;;702.97;;
17197;SDS011;8715;51.010;6.812;2023-12-07T03:55:00;739.03;;;702.92;;
17197;SDS011;8715;51.010;6.812;2023-12-07T03:57:45;746.15;;;709.88;;
17197;SDS011;8715;51.010;6.812;2023-12-07T04:00:31;770.53;;;732.05;;
17197;SDS011;8715;51.010;6.812;2023-12-07T04:03:16;757.92;;;719.33;;
17197;SDS011;8715;51.010;6.812;2023-12-07T04:06:03;746.00;;;708.10;;
17197;SDS011;8715;51.010;6.812;2023-12-07T04:08:48;739.38;;;702.33;;
17197;SDS011;8715;51.010;6.812;2023-12-07T04:11:33;748.90;;;711.95;;
17197;SDS011;8715;51.010;6.812;2023-12-07T04:14:18;763.53;;;726.17;;
17197;SDS011;8715;51.010;6.812;2023-12-07T04:17:03;743.47;;;706.92;;
17197;SDS011;8715;51.010;6.812;2023-12-07T04:19:48;752.22;;;714.78;;
17197;SDS011;8715;51.010;6.812;2023-12-07T04:22:35;748.92;;;711.55;;
17197;SDS011;8715;51.010;6.812;2023-12-07T04:25:20;755.15;;;717.53;;
17197;SDS011;8715;51.010;6.812;2023-12-07T04:28:06;776.28;;;737.15;;
17197;SDS011;8715;51.010;6.812;2023-12-07T04:30:51;753.05;;;714.95;;
17197;SDS011;8715;51.010;6.812;2023-12-07T04:33:36;764.22;;;725.47;;
17197;SDS011;8715;51.010;6.812;2023-12-07T04:36:21;760.30;;;722.10;;
17197;SDS011;8715;51.010;6.812;2023-12-07T04:39:08;759.53;;;721.35;;
17197;SDS011;8715;51.010;6.812;2023-12-07T04:41:53;758.33;;;720.47;;
17197;SDS011;8715;51.010;6.812;2023-12-07T04:44:38;754.17;;;716.33;;
17197;SDS011;8715;51.010;6.812;2023-12-07T04:47:23;765.00;;;726.42;;
17197;SDS011;8715;51.010;6.812;2023-12-07T04:50:08;763.15;;;724.72;;
17197;SDS011;8715;51.010;6.812;2023-12-07T04:52:54;771.97;;;732.90;;
17197;SDS011;8715;51.010;6.812;2023-12-07T04:55:40;765.60;;;726.42;;
17197;SDS011;8715;51.010;6.812;2023-12-07T04:58:29;767.78;;;728.00;;
17197;SDS011;8715;51.010;6.812;2023-12-07T05:01:14;765.45;;;726.35;;
17197;SDS011;8715;51.010;6.812;2023-12-07T05:03:59;804.08;;;762.38;;
17197;SDS011;8715;51.010;6.812;2023-12-07T05:06:45;770.72;;;731.30;;
17197;SDS011;8715;51.010;6.812;2023-12-07T05:09:30;770.22;;;730.35;;
17197;SDS011;8715;51.010;6.812;2023-12-07T05:12:16;780.50;;;740.00;;
17197;SDS011;8715;51.010;6.812;2023-12-07T05:15:02;788.38;;;747.45;;
17197;SDS011;8715;51.010;6.812;2023-12-07T05:17:48;783.00;;;742.30;;
17197;SDS011;8715;51.010;6.812;2023-12-07T05:20:33;772.58;;;732.75;;
17197;SDS011;8715;51.010;6.812;2023-12-07T05:23:20;776.55;;;735.85;;
17197;SDS011;8715;51.010;6.812;2023-12-07T05:26:05;770.15;;;729.92;;
17197;SDS011;8715;51.010;6.812;2023-12-07T05:28:53;769.63;;;729.30;;
17197;SDS011;8715;51.010;6.812;2023-12-07T05:31:38;776.17;;;735.50;;
17197;SDS011;8715;51.010;6.812;2023-12-07T05:34:23;774.83;;;735.20;;
17197;SDS011;8715;51.010;6.812;2023-12-07T05:37:08;777.47;;;736.13;;
17197;SDS011;8715;51.010;6.812;2023-12-07T05:39:53;790.95;;;749.97;;
17197;SDS011;8715;51.010;6.812;2023-12-07T05:42:38;775.53;;;735.17;;
17197;SDS011;8715;51.010;6.812;2023-12-07T05:45:25;773.15;;;733.40;;
17197;SDS011;8715;51.010;6.812;2023-12-07T05:48:11;775.58;;;735.10;;
17197;SDS011;8715;51.010;6.812;2023-12-07T05:50:56;772.13;;;731.28;;
17197;SDS011;8715;51.010;6.812;2023-12-07T05:53:41;766.33;;;726.58;;
17197;SDS011;8715;51.010;6.812;2023-12-07T05:56:26;771.50;;;731.40;;
17197;SDS011;8715;51.010;6.812;2023-12-07T05:59:12;784.30;;;743.33;;
17197;SDS011;8715;51.010;6.812;2023-12-07T06:01:58;775.67;;;735.67;;
17197;SDS011;8715;51.010;6.812;2023-12-07T06:04:43;769.50;;;730.35;;
17197;SDS011;8715;51.010;6.812;2023-12-07T06:07:28;767.97;;;728.58;;
17197;SDS011;8715;51.010;6.812;2023-12-07T06:10:13;782.47;;;741.95;;
17197;SDS011;8715;51.010;6.812;2023-12-07T06:12:58;771.63;;;732.08;;
17197;SDS011;8715;51.010;6.812;2023-12-07T06:15:44;772.13;;;732.72;;
17197;SDS011;8715;51.010;6.812;2023-12-07T06:18:30;770.20;;;730.53;;
17197;SDS011;8715;51.010;6.812;2023-12-07T06:21:15;771.30;;;731.97;;
17197;SDS011;8715;51.010;6.812;2023-12-07T06:24:00;766.90;;;727.53;;
17197;SDS011;8715;51.010;6.812;2023-12-07T06:26:45;774.67;;;734.90;;
17197;SDS011;8715;51.010;6.812;2023-12-07T06:29:30;764.08;;;725.05;;
17197;SDS011;8715;51.010;6.812;2023-12-07T06:32:15;766.63;;;728.15;;
17197;SDS011;8715;51.010;6.812;2023-12-07T06:35:02;765.65;;;726.78;;
17197;SDS011;8715;51.010;6.812;2023-12-07T06:37:48;777.67;;;738.13;;
17197;SDS011;8715;51.010;6.812;2023-12-07T06:40:33;766.95;;;727.92;;
17197;SDS011;8715;51.010;6.812;2023-12-07T06:43:18;763.67;;;725.08;;
17197;SDS011;8715;51.010;6.812;2023-12-07T06:46:03;760.85;;;722.58;;
17197;SDS011;8715;51.010;6.812;2023-12-07T06:48:48;762.17;;;723.03;;
17197;SDS011;8715;51.010;6.812;2023-12-07T06:51:35;762.30;;;724.03;;
17197;SDS011;8715;51.010;6.812;2023-12-07T06:54:20;764.63;;;725.95;;
17197;SDS011;8715;51.010;6.812;2023-12-07T06:57:06;794.22;;;753.45;;
17197;SDS011;8715;51.010;6.812;2023-12-07T06:59:51;765.63;;;726.42;;
17197;SDS011;8715;51.010;6.812;2023-12-07T07:02:36;762.65;;;724.13;;
17197;SDS011;8715;51.010;6.812;2023-12-07T07:05:21;753.80;;;716.70;;
17197;SDS011;8715;51.010;6.812;2023-12-07T07:08:08;755.20;;;717.55;;
17197;SDS011;8715;51.010;6.812;2023-12-07T07:10:53;750.40;;;713.67;;
17197;SDS011;8715;51.010;6.812;2023-12-07T07:13:38;763.67;;;725.90;;
17197;SDS011;8715;51.010;6.812;2023-12-07T07:16:24;765.03;;;726.58;;
17197;SDS011;8715;51.010;6.812;2023-12-07T07:19:10;752.67;;;715.47;;
17197;SDS011;8715;51.010;6.812;2023-12-07T07:21:55;758.15;;;720.83;;
17197;SDS011;8715;51.010;6.812;2023-12-07T07:24:42;767.17;;;729.15;;
17197;SDS011;8715;51.010;6.812;2023-12-07T07:27:27;753.67;;;716.50;;
17197;SDS011;8715;51.010;6.812;2023-12-07T07:30:12;756.17;;;718.88;;
17197;SDS011;8715;51.010;6.812;2023-12-07T07:32:57;757.80;;;720.67;;
17197;SDS011;8715;51.010;6.812;2023-12-07T07:35:43;754.40;;;717.13;;
17197;SDS011;8715;51.010;6.812;2023-12-07T07:38:27;758.42;;;721.20;;
17197;SDS011;8715;51.010;6.812;2023-12-07T07:41:14;762.00;;;724.63;;
17197;SDS011;8715;51.010;6.812;2023-12-07T07:43:59;759.33;;;721.90;;
17197;SDS011;8715;51.010;6.812;2023-12-07T07:46:47;760.33;;;723.17;;
17197;SDS011;8715;51.010;6.812;2023-12-07T07:49:32;752.30;;;715.08;;
17197;SDS011;8715;51.010;6.812;2023-12-07T07:52:18;751.05;;;714.17;;
17197;SDS011;8715;51.010;6.812;2023-12-07T07:55:03;753.38;;;716.63;;
17197;SDS011;8715;51.010;6.812;2023-12-07T07:57:49;745.20;;;708.08;;
17197;SDS011;8715;51.010;6.812;2023-12-07T08:00:35;743.85;;;707.60;;
17197;SDS011;8715;51.010;6.812;2023-12-07T08:03:20;750.90;;;714.35;;
17197;SDS011;8715;51.010;6.812;2023-12-07T08:06:06;753.72;;;716.75;;
17197;SDS011;8715;51.010;6.812;2023-12-07T08:08:52;752.72;;;714.97;;
17197;SDS011;8715;51.010;6.812;2023-12-07T08:11:37;785.20;;;745.25;;
17197;SDS011;8715;51.010;6.812;2023-12-07T08:14:24;755.67;;;717.60;;
17197;SDS011;8715;51.010;6.812;2023-12-07T08:17:09;759.70;;;722.13;;
17197;SDS011;8715;51.010;6.812;2023-12-07T08:19:54;751.10;;;714.85;;
17197;SDS011;8715;51.010;6.812;2023-12-07T08:22:40;755.67;;;718.22;;
17197;SDS011;8715;51.010;6.812;2023-12-07T08:25:25;762.45;;;723.95;;
17197;SDS011;8715;51.010;6.812;2023-12-07T08:28:11;756.95;;;719.72;;
17197;SDS011;8715;51.010;6.812;2023-12-07T08:30:57;758.50;;;721.53;;
17197;SDS011;8715;51.010;6.812;2023-12-07T08:33:42;760.50;;;723.28;;
17197;SDS011;8715;51.010;6.812;2023-12-07T08:36:27;786.10;;;746.55;;
17197;SDS011;8715;51.010;6.812;2023-12-07T08:39:13;760.80;;;722.97;;
17197;SDS011;8715;51.010;6.812;2023-12-07T08:41:58;754.17;;;716.05;;
17197;SDS011;8715;51.010;6.812;2023-12-07T08:44:43;767.58;;;729.58;;
17197;SDS011;8715;51.010;6.812;2023-12-07T08:47:30;768.42;;;729.72;;
17197;SDS011;8715;51.010;6.812;2023-12-07T08:50:15;764.80;;;726.25;;
17197;SDS011;8715;51.010;6.812;2023-12-07T08:53:00;772.55;;;733.83;;
17197;SDS011;8715;51.010;6.812;2023-12-07T08:55:46;761.00;;;723.17;;
17197;SDS011;8715;51.010;6.812;2023-12-07T08:58:31;791.50;;;751.05;;
17197;SDS011;8715;51.010;6.812;2023-12-07T09:01:16;764.08;;;725.55;;
17197;SDS011;8715;51.010;6.812;2023-12-07T09:04:02;767.35;;;728.13;;
17197;SDS011;8715;51.010;6.812;2023-12-07T09:06:48;765.92;;;727.55;;
17197;SDS011;8715;51.010;6.812;2023-12-07T09:09:34;769.70;;;730.30;;
17197;SDS011;8715;51.010;6.812;2023-12-07T09:12:19;769.20;;;730.65;;
17197;SDS011;8715;51.010;6.812;2023-12-07T09:15:04;773.33;;;733.53;;
17197;SDS011;8715;51.010;6.812;2023-12-07T09:17:51;771.97;;;732.80;;
17197;SDS011;8715;51.010;6.812;2023-12-07T09:20:38;772.05;;;733.15;;
17197;SDS011;8715;51.010;6.812;2023-12-07T09:23:29;775.25;;;735.92;;
17197;SDS011;8715;51.010;6.812;2023-12-07T09:26:14;786.40;;;745.70;;
17197;SDS011;8715;51.010;6.812;2023-12-07T09:28:59;776.22;;;736.72;;
17197;SDS011;8715;51.010;6.812;2023-12-07T09:31:44;775.92;;;735.80;;
17197;SDS011;8715;51.010;6.812;2023-12-07T09:34:29;775.20;;;735.65;;
17197;SDS011;8715;51.010;6.812;2023-12-07T09:37:15;789.17;;;748.25;;
17197;SDS011;8715;51.010;6.812;2023-12-07T09:40:01;800.00;;;758.25;;
17197;SDS011;8715;51.010;6.812;2023-12-07T09:42:48;781.55;;;741.13;;
17197;SDS011;8715;51.010;6.812;2023-12-07T09:45:33;784.47;;;743.78;;
17197;SDS011;8715;51.010;6.812;2023-12-07T09:48:18;783.60;;;742.83;;
17197;SDS011;8715;51.010;6.812;2023-12-07T09:51:04;786.38;;;745.42;;
17197;SDS011;8715;51.010;6.812;2023-12-07T09:53:52;798.47;;;756.53;;
17197;SDS011;8715;51.010;6.812;2023-12-07T09:56:38;791.10;;;749.60;;
17197;SDS011;8715;51.010;6.812;2023-12-07T09:59:23;789.88;;;748.65;;
17197;SDS011;8715;51.010;6.812;2023-12-07T10:02:08;792.35;;;750.85;;
17197;SDS011;8715;51.010;6.812;2023-12-07T10:05:03;779.75;;;739.42;;
17197;SDS011;8715;51.010;6.812;2023-12-07T10:07:51;796.35;;;754.35;;
17197;SDS011;8715;51.010;6.812;2023-12-07T10:10:37;789.60;;;748.22;;
17197;SDS011;8715;51.010;6.812;2023-12-07T10:13:22;810.28;;;766.92;;
17197;SDS011;8715;51.010;6.812;2023-12-07T10:16:09;805.60;;;762.72;;
17197;SDS011;8715;51.010;6.812;2023-12-07T10:18:54;817.55;;;773.15;;
17197;SDS011;8715;51.010;6.812;2023-12-07T10:21:40;796.92;;;754.85;;
17197;SDS011;8715;51.010;6.812;2023-12-07T10:24:25;814.05;;;769.78;;
17197;SDS011;8715;51.010;6.812;2023-12-07T10:27:12;799.50;;;756.80;;
17197;SDS011;8715;51.010;6.812;2023-12-07T10:29:58;798.40;;;755.92;;
17197;SDS011;8715;51.010;6.812;2023-12-07T10:32:43;799.38;;;756.63;;
17197;SDS011;8715;51.010;6.812;2023-12-07T10:35:28;794.03;;;751.47;;
17197;SDS011;8715;51.010;6.812;2023-12-07T10:38:14;803.03;;;759.45;;
17197;SDS011;8715;51.010;6.812;2023-12-07T10:41:03;808.15;;;764.08;;
17197;SDS011;8715;51.010;6.812;2023-12-07T10:43:51;823.60;;;778.17;;
17197;SDS011;8715;51.010;6.812;2023-12-07T10:46:36;804.80;;;761.03;;
17197;SDS011;8715;51.010;6.812;2023-12-07T10:49:25;795.28;;;752.45;;
17197;SDS011;8715;51.010;6.812;2023-12-07T10:52:12;801.72;;;758.20;;
17197;SDS011;8715;51.010;6.812;2023-12-07T10:54:59;800.72;;;757.83;;
17197;SDS011;8715;51.010;6.812;2023-12-07T10:57:47;807.03;;;762.85;;
17197;SDS011;8715;51.010;6.812;2023-12-07T11:00:33;799.28;;;756.17;;
17197;SDS011;8715;51.010;6.812;2023-12-07T11:03:19;821.75;;;777.20;;
17197;SDS011;8715;51.010;6.812;2023-12-07T11:06:05;809.65;;;765.38;;
17197;SDS011;8715;51.010;6.812;2023-12-07T11:08:51;806.80;;;762.80;;
17197;SDS011;8715;51.010;6.812;2023-12-07T11:11:39;830.85;;;784.50;;
17197;SDS011;8715;51.010;6.812;2023-12-07T11:14:25;809.05;;;764.78;;
17197;SDS011;8715;51.010;6.812;2023-12-07T11:17:12;809.47;;;764.97;;
17197;SDS011;8715;51.010;6.812;2023-12-07T11:19:57;810.90;;;766.42;;
17197;SDS011;8715;51.010;6.812;2023-12-07T11:22:42;807.08;;;763.00;;
17197;SDS011;8715;51.010;6.812;2023-12-07T11:25:27;816.25;;;771.38;;
17197;SDS011;8715;51.010;6.812;2023-12-07T11:28:13;817.38;;;772.85;;
17197;SDS011;8715;51.010;6.812;2023-12-07T11:30:58;818.00;;;772.50;;
17197;SDS011;8715;51.010;6.812;2023-12-07T11:33:44;812.35;;;767.28;;
17197;SDS011;8715;51.010;6.812;2023-12-07T11:36:31;824.58;;;778.50;;
17197;SDS011;8715;51.010;6.812;2023-12-07T11:39:16;806.78;;;762.75;;
17197;SDS011;8715;51.010;6.812;2023-12-07T11:42:05;800.60;;;757.22;;
17197;SDS011;8715;51.010;6.812;2023-12-07T11:44:51;809.40;;;765.40;;
17197;SDS011;8715;51.010;6.812;2023-12-07T11:47:36;804.63;;;760.70;;
17197;SDS011;8715;51.010;6.812;2023-12-07T11:50:22;811.40;;;767.38;;
17197;SDS011;8715;51.010;6.812;2023-12-07T11:53:08;808.25;;;763.67;;
17197;SDS011;8715;51.010;6.812;2023-12-07T11:55:53;811.08;;;766.25;;
17197;SDS011;8715;51.010;6.812;2023-12-07T11:58:38;821.90;;;776.50;;
17197;SDS011;8715;51.010;6.812;2023-12-07T12:01:24;807.03;;;763.13;;
17197;SDS011;8715;51.010;6.812;2023-12-07T12:04:11;813.60;;;768.65;;
17197;SDS011;8715;51.010;6.812;2023-12-07T12:06:57;817.60;;;772.47;;
17197;SDS011;8715;51.010;6.812;2023-12-07T12:09:43;813.08;;;768.42;;
17197;SDS011;8715;51.010;6.812;2023-12-07T12:12:29;813.63;;;768.80;;
17197;SDS011;8715;51.010;6.812;2023-12-07T12:15:14;811.58;;;766.85;;
17197;SDS011;8715;51.010;6.812;2023-12-07T12:17:59;814.90;;;770.28;;
17197;SDS011;8715;51.010;6.812;2023-12-07T12:20:45;834.72;;;788.15;;
17197;SDS011;8715;51.010;6.812;2023-12-07T12:23:31;820.38;;;774.63;;
17197;SDS011;8715;51.010;6.812;2023-12-07T12:26:16;815.15;;;770.08;;
17197;SDS011;8715;51.010;6.812;2023-12-07T12:29:02;835.13;;;788.25;;
17197;SDS011;8715;51.010;6.812;2023-12-07T12:31:47;818.38;;;772.83;;
17197;SDS011;8715;51.010;6.812;2023-12-07T12:34:33;815.42;;;770.58;;
17197;SDS011;8715;51.010;6.812;2023-12-07T12:37:18;816.05;;;770.88;;
17197;SDS011;8715;51.010;6.812;2023-12-07T12:40:06;809.63;;;765.10;;
17197;SDS011;8715;51.010;6.812;2023-12-07T12:42:52;811.38;;;766.30;;
17197;SDS011;8715;51.010;6.812;2023-12-07T12:45:37;812.95;;;768.50;;
17197;SDS011;8715;51.010;6.812;2023-12-07T12:48:22;819.85;;;774.17;;
17197;SDS011;8715;51.010;6.812;2023-12-07T12:51:07;810.90;;;766.00;;
17197;SDS011;8715;51.010;6.812;2023-12-07T12:53:53;820.13;;;774.08;;
17197;SDS011;8715;51.010;6.812;2023-12-07T12:56:39;818.33;;;772.60;;
17197;SDS011;8715;51.010;6.812;2023-12-07T12:59:25;825.00;;;778.63;;
17197;SDS011;8715;51.010;6.812;2023-12-07T13:02:10;822.53;;;776.20;;
17197;SDS011;8715;51.010;6.812;2023-12-07T13:04:55;842.58;;;794.47;;
17197;SDS011;8715;51.010;6.812;2023-12-07T13:07:41;822.88;;;776.72;;
17197;SDS011;8715;51.010;6.812;2023-12-07T13:10:26;822.47;;;776.13;;
17197;SDS011;8715;51.010;6.812;2023-12-07T13:13:12;824.15;;;777.47;;
17197;SDS011;8715;51.010;6.812;2023-12-07T13:15:57;821.13;;;774.63;;
17197;SDS011;8715;51.010;6.812;2023-12-07T13:18:42;821.95;;;775.75;;
17197;SDS011;8715;51.010;6.812;2023-12-07T13:21:27;819.03;;;773.30;;
17197;SDS011;8715;51.010;6.812;2023-12-07T13:24:12;826.10;;;779.05;;
17197;SDS011;8715;51.010;6.812;2023-12-07T13:26:57;826.88;;;779.95;;
17197;SDS011;8715;51.010;6.812;2023-12-07T13:29:45;820.28;;;774.33;;
17197;SDS011;8715;51.010;6.812;2023-12-07T13:32:30;824.05;;;777.38;;
17197;SDS011;8715;51.010;6.812;2023-12-07T13:35:15;820.50;;;774.72;;
17197;SDS011;8715;51.010;6.812;2023-12-07T13:38:00;826.55;;;780.25;;
17197;SDS011;8715;51.010;6.812;2023-12-07T13:40:45;819.85;;;773.85;;
17197;SDS011;8715;51.010;6.812;2023-12-07T13:43:30;819.63;;;773.60;;
17197;SDS011;8715;51.010;6.812;2023-12-07T13:46:18;823.92;;;777.35;;
17197;SDS011;8715;51.010;6.812;2023-12-07T13:49:03;826.65;;;779.85;;
17197;SDS011;8715;51.010;6.812;2023-12-07T13:51:48;820.33;;;774.03;;
17197;SDS011;8715;51.010;6.812;2023-12-07T13:54:33;842.72;;;794.53;;
17197;SDS011;8715;51.010;6.812;2023-12-07T13:57:19;841.83;;;793.90;;
17197;SDS011;8715;51.010;6.812;2023-12-07T14:00:05;817.03;;;771.35;;
17197;SDS011;8715;51.010;6.812;2023-12-07T14:02:52;830.25;;;783.67;;
17197;SDS011;8715;51.010;6.812;2023-12-07T14:05:37;820.17;;;774.35;;
17197;SDS011;8715;51.010;6.812;2023-12-07T14:08:23;811.33;;;766.13;;
17197;SDS011;8715;51.010;6.812;2023-12-07T14:11:09;822.75;;;776.85;;
17197;SDS011;8715;51.010;6.812;2023-12-07T14:13:56;822.60;;;776.88;;
17197;SDS011;8715;51.010;6.812;2023-12-07T14:16:41;818.67;;;773.17;;
17197;SDS011;8715;51.010;6.812;2023-12-07T14:19:28;812.22;;;767.38;;
17197;SDS011;8715;51.010;6.812;2023-12-07T14:22:13;832.78;;;786.35;;
17197;SDS011;8715;51.010;6.812;2023-12-07T14:24:58;819.80;;;774.28;;
17197;SDS011;8715;51.010;6.812;2023-12-07T14:27:44;814.40;;;769.28;;
17197;SDS011;8715;51.010;6.812;2023-12-07T14:30:30;834.22;;;787.92;;
17197;SDS011;8715;51.010;6.812;2023-12-07T14:33:15;812.35;;;767.92;;
17197;SDS011;8715;51.010;6.812;2023-12-07T14:36:00;810.80;;;766.20;;
17197;SDS011;8715;51.010;6.812;2023-12-07T14:38:46;807.03;;;762.20;;
17197;SDS011;8715;51.010;6.812;2023-12-07T14:41:30;815.85;;;771.35;;
17197;SDS011;8715;51.010;6.812;2023-12-07T14:44:16;807.63;;;763.63;;
17197;SDS011;8715;51.010;6.812;2023-12-07T14:47:01;809.75;;;765.85;;
17197;SDS011;8715;51.010;6.812;2023-12-07T14:49:46;815.00;;;770.55;;
17197;SDS011;8715;51.010;6.812;2023-12-07T14:52:35;808.67;;;765.13;;
17197;SDS011;8715;51.010;6.812;2023-12-07T14:55:20;819.50;;;774.80;;
17197;SDS011;8715;51.010;6.812;2023-12-07T14:58:05;796.40;;;754.05;;
17197;SDS011;8715;51.010;6.812;2023-12-07T15:00:50;804.10;;;761.15;;
17197;SDS011;8715;51.010;6.812;2023-12-07T15:03:35;800.63;;;757.75;;
17197;SDS011;8715;51.010;6.812;2023-12-07T15:06:20;798.88;;;756.05;;
17197;SDS011;8715;51.010;6.812;2023-12-07T15:09:07;796.67;;;754.38;;
17197;SDS011;8715;51.010;6.812;2023-12-07T15:11:52;791.08;;;749.75;;
17197;SDS011;8715;51.010;6.812;2023-12-07T15:14:38;802.70;;;760.25;;
17197;SDS011;8715;51.010;6.812;2023-12-07T15:17:23;789.38;;;748.08;;
17197;SDS011;8715;51.010;6.812;2023-12-07T15:20:09;803.15;;;760.35;;
17197;SDS011;8715;51.010;6.812;2023-12-07T15:22:54;806.75;;;764.10;;
17197;SDS011;8715;51.010;6.812;2023-12-07T15:25:41;796.10;;;754.08;;
17197;SDS011;8715;51.010;6.812;2023-12-07T15:28:26;795.13;;;754.00;;
17197;SDS011;8715;51.010;6.812;2023-12-07T15:31:12;800.85;;;758.58;;
17197;SDS011;8715;51.010;6.812;2023-12-07T15:33:56;793.38;;;751.58;;
17197;SDS011;8715;51.010;6.812;2023-12-07T15:36:42;791.70;;;750.42;;
17197;SDS011;8715;51.010;6.812;2023-12-07T15:39:26;806.38;;;764.15;;
17197;SDS011;8715;51.010;6.812;2023-12-07T15:42:15;788.30;;;747.80;;
17197;SDS011;8715;51.010;6.812;2023-12-07T15:45:00;794.33;;;752.83;;
17197;SDS011;8715;51.010;6.812;2023-12-07T15:47:45;788.60;;;747.97;;
17197;SDS011;8715;51.010;6.812;2023-12-07T15:50:30;785.83;;;745.28;;
17197;SDS011;8715;51.010;6.812;2023-12-07T15:53:15;786.67;;;746.25;;